Time;durP1;ratioP1;P1;durP2;ratioP2;P2;SDS_P1;SDS_P2;PMS_P1;PMS_P2;Temp;Humidity;BMP_temperature;BMP_pressure;BME280_temperature;BME280_humidity;BME280_pressure;Samples;Min_cycle;Max_cycle;Signal;HPM_P1;HPM_P2
2022/06/17 00:01:33;;;;;;;0.90;0.90;;;18.70;48.50;;;;;;926625;150;27318;-74
2022/06/17 00:03:59;;;;;;;0.80;0.80;;;18.70;48.70;;;;;;924944;152;27402;-73
2022/06/17 00:06:26;;;;;;;2.40;1.07;;;18.60;48.90;;;;;;925502;152;27385;-73
2022/06/17 00:08:52;;;;;;;1.03;0.80;;;18.50;49.10;;;;;;924606;152;27524;-73
2022/06/17 00:11:22;;;;;;;0.90;0.90;;;18.40;49.20;;;;;;925345;151;27371;-73
2022/06/17 00:13:49;;;;;;;1.90;0.87;;;18.40;49.30;;;;;;924250;152;27476;-73
2022/06/17 00:16:15;;;;;;;1.12;0.80;;;18.20;49.40;;;;;;925711;152;27426;-74
2022/06/17 00:18:42;;;;;;;1.23;1.13;;;18.20;49.70;;;;;;925322;152;27589;-73
2022/06/17 00:21:14;;;;;;;1.25;1.05;;;18.10;49.90;;;;;;927222;152;27293;-73
2022/06/17 00:23:41;;;;;;;0.90;0.90;;;18.10;50.00;;;;;;920733;152;27392;-73
2022/06/17 00:26:08;;;;;;;0.77;0.77;;;18.00;50.10;;;;;;926568;152;27358;-73
2022/06/17 00:28:34;;;;;;;1.03;1.00;;;17.90;50.20;;;;;;924713;152;27396;-73
2022/06/17 00:31:01;;;;;;;1.40;1.10;;;17.90;50.40;;;;;;928494;152;27342;-73
2022/06/17 00:33:27;;;;;;;1.20;1.07;;;17.80;50.60;;;;;;928878;152;27462;-73
2022/06/17 00:35:54;;;;;;;1.00;1.00;;;17.80;50.70;;;;;;927618;152;27314;-73
2022/06/17 00:38:20;;;;;;;0.83;0.80;;;17.70;50.80;;;;;;926404;152;28624;-73
2022/06/17 00:40:47;;;;;;;1.73;0.90;;;17.70;51.00;;;;;;927292;152;27379;-74
2022/06/17 00:43:32;;;;;;;1.20;1.10;;;17.60;51.10;;;;;;925469;152;27382;-73
2022/06/17 00:46:02;;;;;;;0.80;0.80;;;17.60;51.20;;;;;;925997;152;27404;-73
2022/06/17 00:48:25;;;;;;;1.23;1.13;;;17.60;51.30;;;;;;926456;152;28304;-73
2022/06/17 00:50:58;;;;;;;1.00;1.00;;;17.50;51.50;;;;;;927634;152;27461;-73
2022/06/17 00:53:33;;;;;;;1.87;1.43;;;17.50;51.60;;;;;;926012;150;27306;-73
2022/06/17 00:56:08;;;;;;;1.30;1.20;;;17.40;51.60;;;;;;907999;152;27415;-74
2022/06/17 00:58:32;;;;;;;1.80;1.10;;;17.40;51.70;;;;;;926925;152;27468;-73
2022/06/17 01:00:59;;;;;;;1.27;0.80;;;17.40;51.80;;;;;;930361;152;27462;-73
2022/06/17 01:03:31;;;;;;;1.00;1.00;;;17.30;52.00;;;;;;929069;150;27437;-73
2022/06/17 01:06:09;;;;;;;1.13;1.03;;;17.20;52.00;;;;;;931376;152;27344;-73
2022/06/17 01:11:21;;;;;;;1.07;0.83;;;17.20;52.20;;;;;;930778;152;27436;-72
2022/06/17 01:13:47;;;;;;;1.10;1.10;;;17.10;52.30;;;;;;927853;152;27313;-73
2022/06/17 01:16:14;;;;;;;1.10;1.10;;;17.00;52.70;;;;;;931784;152;27349;-74
2022/06/17 01:18:40;;;;;;;1.83;0.80;;;17.00;52.80;;;;;;929790;152;27326;-74
2022/06/17 01:21:07;;;;;;;3.00;1.20;;;17.00;53.00;;;;;;930160;152;27369;-74
2022/06/17 01:23:34;;;;;;;0.90;0.90;;;16.90;53.00;;;;;;929366;152;27473;-73
2022/06/17 01:26:00;;;;;;;0.80;0.80;;;16.90;53.30;;;;;;929168;152;27343;-73
2022/06/17 01:28:27;;;;;;;0.90;0.90;;;16.80;53.30;;;;;;932777;150;27357;-73
2022/06/17 01:30:54;;;;;;;1.07;1.00;;;16.70;53.50;;;;;;910446;155;27434;-73
2022/06/17 01:33:23;;;;;;;1.20;1.10;;;16.80;54.40;;;;;;901305;155;27970;-73
2022/06/17 01:36:12;;;;;;;1.50;1.40;;;16.70;53.50;;;;;;907994;155;27453;-73
2022/06/17 01:38:37;;;;;;;0.97;0.90;;;16.60;54.30;;;;;;922802;153;28081;-73
2022/06/17 01:41:04;;;;;;;1.00;1.00;;;16.60;54.30;;;;;;909238;155;27351;-74
2022/06/17 01:43:55;;;;;;;1.60;1.20;;;16.60;54.40;;;;;;906857;155;27366;-73
2022/06/17 01:46:22;;;;;;;1.30;1.20;;;16.50;54.50;;;;;;908518;155;27363;-73
2022/06/17 01:48:48;;;;;;;2.20;1.17;;;16.50;54.60;;;;;;900745;155;27922;-73
2022/06/17 01:51:15;;;;;;;0.70;0.70;;;16.50;54.90;;;;;;906077;155;27434;-74
2022/06/17 01:53:42;;;;;;;1.83;1.00;;;16.50;55.00;;;;;;922040;152;27425;-73
2022/06/17 01:56:08;;;;;;;1.43;1.17;;;16.40;55.00;;;;;;906894;155;27406;-73
2022/06/17 01:58:37;;;;;;;1.17;1.00;;;16.40;55.00;;;;;;908522;155;28174;-74
2022/06/17 02:01:04;;;;;;;0.90;0.90;;;16.30;55.00;;;;;;907640;155;27501;-73
2022/06/17 02:03:30;;;;;;;1.00;0.90;;;16.20;55.10;;;;;;908327;155;27416;-72
2022/06/17 02:06:12;;;;;;;0.90;0.90;;;16.20;55.20;;;;;;873551;155;27948;-73
2022/06/17 02:08:38;;;;;;;1.27;1.17;;;16.10;55.40;;;;;;921015;153;27473;-73
2022/06/17 02:11:05;;;;;;;1.53;1.20;;;16.10;55.50;;;;;;926481;153;27922;-74
2022/06/17 02:13:32;;;;;;;1.33;1.23;;;16.00;55.80;;;;;;922999;153;27364;-73
2022/06/17 02:16:01;;;;;;;1.10;1.10;;;16.00;56.00;;;;;;927441;153;27375;-73
2022/06/17 02:18:28;;;;;;;1.70;1.20;;;16.00;56.40;;;;;;926264;153;27429;-73
2022/06/17 02:20:55;;;;;;;1.40;1.30;;;15.90;56.50;;;;;;925275;153;27372;-73
2022/06/17 02:23:22;;;;;;;2.03;1.30;;;15.90;56.80;;;;;;901760;155;27512;-73
2022/06/17 02:25:47;;;;;;;1.50;1.17;;;15.90;56.90;;;;;;900896;155;27492;-74
2022/06/17 02:28:15;;;;;;;2.07;1.17;;;15.90;57.00;;;;;;901068;155;27457;-73
2022/06/17 02:30:41;;;;;;;1.10;1.10;;;15.90;57.20;;;;;;901628;156;27880;-73
2022/06/17 02:33:07;;;;;;;3.00;1.30;;;15.90;57.10;;;;;;922169;151;27255;-73
2022/06/17 02:35:34;;;;;;;1.30;1.20;;;15.90;57.20;;;;;;936785;150;27360;-73
2022/06/17 02:38:00;;;;;;;1.10;1.10;;;15.90;57.30;;;;;;930877;148;27408;-74
2022/06/17 02:40:33;;;;;;;1.30;1.20;;;15.90;57.20;;;;;;935754;150;27418;-74
2022/06/17 02:42:59;;;;;;;1.50;1.40;;;15.80;57.10;;;;;;934781;150;27496;-73
2022/06/17 02:45:26;;;;;;;1.40;1.30;;;15.80;57.20;;;;;;933640;151;27326;-73
2022/06/17 02:47:53;;;;;;;1.83;1.63;;;15.70;57.20;;;;;;934597;151;27440;-73
2022/06/17 02:50:22;;;;;;;1.40;1.30;;;15.60;57.20;;;;;;935742;150;27476;-73
2022/06/17 02:52:48;;;;;;;3.53;1.40;;;15.60;57.30;;;;;;933564;151;27369;-73
2022/06/17 02:55:30;;;;;;;1.53;1.43;;;15.50;57.30;;;;;;933659;151;27393;-72
2022/06/17 02:57:57;;;;;;;1.43;1.33;;;15.40;57.40;;;;;;933785;151;29256;-72
2022/06/17 03:00:24;;;;;;;1.50;1.40;;;15.40;57.60;;;;;;933746;151;27429;-73
2022/06/17 03:02:50;;;;;;;1.07;1.03;;;15.30;57.70;;;;;;934459;151;27400;-73
2022/06/17 03:05:17;;;;;;;1.20;1.10;;;15.20;58.00;;;;;;932382;151;27343;-73
2022/06/17 03:07:43;;;;;;;1.53;1.43;;;15.20;58.10;;;;;;931450;151;27375;-73
2022/06/17 03:10:13;;;;;;;1.60;1.50;;;15.20;58.30;;;;;;931236;148;27372;-73
2022/06/17 03:12:39;;;;;;;1.30;1.20;;;15.20;58.50;;;;;;934338;151;28042;-73
2022/06/17 03:15:06;;;;;;;1.33;1.33;;;15.20;58.70;;;;;;935250;150;27331;-73
2022/06/17 03:17:33;;;;;;;1.77;1.23;;;15.20;58.70;;;;;;931605;151;27429;-74
2022/06/17 03:19:59;;;;;;;1.60;1.50;;;15.10;58.70;;;;;;935955;148;27490;-74
2022/06/17 03:22:26;;;;;;;2.50;1.40;;;15.10;58.80;;;;;;935110;151;27385;-73
2022/06/17 03:24:58;;;;;;;2.73;1.70;;;15.10;59.10;;;;;;936288;151;27289;-72
2022/06/17 03:27:40;;;;;;;3.70;1.50;;;15.10;59.00;;;;;;925836;151;27436;-73
2022/06/17 03:30:07;;;;;;;2.17;1.47;;;15.20;59.20;;;;;;933162;150;27374;-74
2022/06/17 03:32:36;;;;;;;1.60;1.50;;;15.10;59.40;;;;;;919989;153;27239;-74
2022/06/17 03:35:02;;;;;;;2.30;1.93;;;15.20;59.70;;;;;;920154;153;27322;-73
2022/06/17 03:37:29;;;;;;;2.50;1.90;;;15.30;59.90;;;;;;920016;153;28436;-73
2022/06/17 03:39:55;;;;;;;2.70;1.93;;;15.30;59.30;;;;;;920783;153;27387;-74
2022/06/17 03:42:34;;;;;;;1.67;1.57;;;15.40;60.10;;;;;;919436;153;27294;-74
2022/06/17 03:45:13;;;;;;;1.83;1.70;;;15.40;60.20;;;;;;920163;153;27382;-73
2022/06/17 03:47:39;;;;;;;1.63;1.53;;;15.50;60.00;;;;;;917818;153;27381;-74
2022/06/17 03:50:06;;;;;;;4.50;2.00;;;15.60;60.00;;;;;;921504;153;27223;-73
2022/06/17 03:52:38;;;;;;;2.37;1.70;;;15.60;60.00;;;;;;920207;153;27262;-74
2022/06/17 03:55:05;;;;;;;2.23;1.50;;;15.70;60.00;;;;;;919570;153;27289;-74
2022/06/17 03:57:31;;;;;;;2.33;1.90;;;15.80;59.90;;;;;;917338;153;27370;-73
2022/06/17 03:59:58;;;;;;;1.70;1.53;;;15.80;59.80;;;;;;917710;153;27339;-74
2022/06/17 04:02:29;;;;;;;1.77;1.67;;;15.90;59.90;;;;;;918064;153;27247;-73
2022/06/17 04:04:51;;;;;;;1.60;1.50;;;15.90;59.90;;;;;;917801;153;27299;-74
2022/06/17 04:07:17;;;;;;;2.97;1.83;;;16.00;59.90;;;;;;921727;153;27292;-73
2022/06/17 04:09:44;;;;;;;1.87;1.73;;;16.00;60.00;;;;;;918764;153;27448;-74
2022/06/17 04:12:14;;;;;;;1.40;1.30;;;16.10;60.80;;;;;;920903;153;27307;-74
2022/06/17 04:14:55;;;;;;;1.60;1.50;;;16.10;60.00;;;;;;921032;153;27329;-73
2022/06/17 04:17:21;;;;;;;1.50;1.40;;;16.20;60.00;;;;;;918356;153;27751;-73
2022/06/17 04:19:48;;;;;;;2.07;1.60;;;16.20;59.90;;;;;;919661;153;27925;-73
2022/06/17 04:22:20;;;;;;;1.70;1.57;;;16.30;60.00;;;;;;923020;153;27404;-73
2022/06/17 04:24:47;;;;;;;1.73;1.50;;;16.30;60.10;;;;;;919951;153;27292;-73
2022/06/17 04:27:13;;;;;;;1.90;1.80;;;16.40;60.10;;;;;;920747;153;27243;-74
2022/06/17 04:29:40;;;;;;;2.20;2.00;;;16.40;60.00;;;;;;917068;153;27343;-74
2022/06/17 04:32:15;;;;;;;1.57;1.47;;;16.50;60.20;;;;;;920575;153;27417;-74
2022/06/17 04:34:42;;;;;;;4.63;1.70;;;16.60;60.30;;;;;;916701;150;27231;-73
2022/06/17 04:37:12;;;;;;;1.53;1.43;;;16.70;60.30;;;;;;915253;153;27281;-74
2022/06/17 04:39:44;;;;;;;1.67;1.53;;;16.80;60.40;;;;;;919186;153;27227;-74
2022/06/17 04:42:16;;;;;;;1.93;1.83;;;16.90;60.50;;;;;;916299;153;27300;-74
2022/06/17 04:44:43;;;;;;;1.65;1.37;;;17.10;60.50;;;;;;919721;153;27306;-74
2022/06/17 04:47:15;;;;;;;1.70;1.60;;;17.20;60.50;;;;;;918629;153;27276;-74
2022/06/17 04:49:42;;;;;;;1.57;1.37;;;17.40;60.70;;;;;;916796;153;27296;-74
2022/06/17 04:52:08;;;;;;;1.67;1.57;;;17.60;60.70;;;;;;916633;153;27399;-73
2022/06/17 04:54:36;;;;;;;2.42;1.60;;;17.90;60.90;;;;;;920280;151;27231;-75
2022/06/17 04:57:02;;;;;;;1.50;1.40;;;18.30;61.60;;;;;;923143;152;27463;-73
2022/06/17 04:59:44;;;;;;;1.25;1.22;;;18.80;62.30;;;;;;927081;152;27799;-75
2022/06/17 05:02:21;;;;;;;1.52;1.42;;;19.40;62.50;;;;;;924030;152;27368;-73
2022/06/17 05:04:49;;;;;;;1.32;1.20;;;20.20;62.30;;;;;;895567;159;27540;-74
2022/06/17 05:07:15;;;;;;;1.85;1.42;;;21.00;61.20;;;;;;894129;156;27532;-73
2022/06/17 05:09:47;;;;;;;1.47;1.40;;;21.80;59.90;;;;;;895211;156;27563;-74
2022/06/17 05:12:19;;;;;;;1.35;1.25;;;22.60;59.50;;;;;;900090;156;27492;-74
2022/06/17 05:14:54;;;;;;;1.12;1.07;;;23.30;57.80;;;;;;895706;156;27377;-75
2022/06/17 05:17:20;;;;;;;1.42;1.30;;;24.00;56.70;;;;;;901932;156;28397;-74
2022/06/17 05:19:50;;;;;;;1.50;1.40;;;24.70;55.70;;;;;;938240;150;27327;-75
2022/06/17 05:22:16;;;;;;;1.52;1.42;;;25.30;54.80;;;;;;933149;151;27285;-74
2022/06/17 05:24:43;;;;;;;1.55;1.17;;;25.90;53.70;;;;;;931380;151;27329;-75
2022/06/17 05:27:10;;;;;;;1.35;1.25;;;26.40;52.70;;;;;;933928;151;27375;-74
2022/06/17 05:29:36;;;;;;;1.12;1.10;;;26.80;51.90;;;;;;898610;156;27433;-74
2022/06/17 05:32:03;;;;;;;1.87;1.35;;;27.30;51.60;;;;;;898438;155;27393;-74
2022/06/17 05:34:29;;;;;;;1.65;1.55;;;27.80;51.30;;;;;;900495;156;27440;-75
2022/06/17 05:36:57;;;;;;;1.45;1.35;;;28.30;50.90;;;;;;922893;153;27356;-74
2022/06/17 05:39:23;;;;;;;2.35;1.47;;;28.90;50.60;;;;;;936468;149;27491;-75
2022/06/17 05:41:49;;;;;;;1.98;1.35;;;29.60;50.20;;;;;;900892;156;27455;-74
2022/06/17 05:44:16;;;;;;;1.42;1.20;;;30.30;49.60;;;;;;920660;154;27734;-74
2022/06/17 05:46:43;;;;;;;1.42;1.32;;;31.10;48.70;;;;;;910463;155;27462;-74
2022/06/17 05:49:09;;;;;;;1.87;1.35;;;31.90;47.90;;;;;;909377;155;27368;-74
2022/06/17 05:51:36;;;;;;;1.75;1.20;;;32.60;46.90;;;;;;896829;156;27433;-74
2022/06/17 05:54:02;;;;;;;2.20;1.10;;;33.40;46.00;;;;;;920190;154;27401;-74
2022/06/17 05:56:29;;;;;;;1.45;1.35;;;34.10;45.10;;;;;;905795;156;28564;-74
2022/06/17 05:58:55;;;;;;;1.87;1.77;;;34.70;44.00;;;;;;921965;153;27369;-75
2022/06/17 06:01:22;;;;;;;1.80;1.20;;;35.30;43.00;;;;;;918998;153;26189;-75
2022/06/17 06:03:48;;;;;;;1.22;1.15;;;35.90;42.20;;;;;;922414;153;27362;-75
2022/06/17 06:06:15;;;;;;;1.50;1.25;;;36.40;41.50;;;;;;918746;153;26339;-75
2022/06/17 06:08:42;;;;;;;2.15;1.55;;;36.90;40.50;;;;;;920359;153;26407;-75
2022/06/17 06:11:08;;;;;;;2.45;1.10;;;37.40;39.90;;;;;;921710;153;26318;-76
2022/06/17 06:13:35;;;;;;;1.57;1.02;;;37.70;39.10;;;;;;895431;156;26311;-75
2022/06/17 06:16:02;;;;;;;1.42;1.20;;;38.10;38.40;;;;;;895744;156;27382;-74
2022/06/17 06:18:28;;;;;;;1.80;1.37;;;38.40;37.90;;;;;;895840;156;26353;-75
2022/06/17 06:20:55;;;;;;;1.20;1.10;;;38.80;37.30;;;;;;921653;152;27390;-74
2022/06/17 06:23:21;;;;;;;1.50;1.32;;;39.10;36.80;;;;;;893856;155;26319;-75
2022/06/17 06:25:48;;;;;;;2.37;1.00;;;39.40;36.20;;;;;;901897;156;26306;-75
2022/06/17 06:28:20;;;;;;;1.40;1.30;;;39.70;35.50;;;;;;918601;153;26220;-75
2022/06/17 06:31:09;;;;;;;2.05;1.20;;;39.90;35.10;;;;;;921140;153;26254;-76
2022/06/17 06:33:34;;;;;;;1.15;1.10;;;40.20;34.40;;;;;;931758;150;27379;-74
2022/06/17 06:36:01;;;;;;;1.55;1.45;;;40.30;34.00;;;;;;903008;156;26291;-75
2022/06/17 06:38:27;;;;;;;1.37;1.27;;;40.50;33.80;;;;;;916372;154;26241;-74
2022/06/17 06:40:54;;;;;;;5.47;1.40;;;40.60;33.60;;;;;;904111;155;26291;-75
2022/06/17 06:43:21;;;;;;;2.40;1.15;;;40.80;33.40;;;;;;920288;154;26425;-76
2022/06/17 06:45:50;;;;;;;1.40;1.30;;;41.00;32.90;;;;;;908976;155;26273;-75
2022/06/17 06:48:16;;;;;;;2.40;1.25;;;41.30;32.70;;;;;;914054;155;26306;-75
2022/06/17 06:50:43;;;;;;;1.95;0.90;;;41.60;31.70;;;;;;908227;155;26258;-75
2022/06/17 06:53:10;;;;;;;0.93;0.85;;;41.90;32.00;;;;;;911896;153;26280;-75
2022/06/17 06:55:36;;;;;;;1.62;1.40;;;42.20;31.70;;;;;;907876;155;26395;-76
2022/06/17 06:58:03;;;;;;;1.95;1.10;;;42.50;31.20;;;;;;910918;155;26318;-76
2022/06/17 07:00:35;;;;;;;1.17;1.12;;;42.80;30.70;;;;;;905971;155;26310;-74
2022/06/17 07:03:02;;;;;;;1.35;1.10;;;43.00;30.20;;;;;;909783;155;26741;-75
2022/06/17 07:05:28;;;;;;;0.90;0.90;;;43.20;29.90;;;;;;911832;155;26314;-75
2022/06/17 07:07:55;;;;;;;1.45;0.98;;;43.40;29.60;;;;;;911042;155;26688;-76
2022/06/17 07:10:23;;;;;;;1.02;0.95;;;43.50;29.10;;;;;;910852;155;26314;-75
2022/06/17 07:12:48;;;;;;;1.10;0.98;;;43.70;29.00;;;;;;910459;155;26600;-75
2022/06/17 07:15:15;;;;;;;0.72;0.72;;;43.80;28.60;;;;;;907613;155;26411;-75
2022/06/17 07:17:41;;;;;;;1.77;0.70;;;43.90;28.60;;;;;;908889;155;26363;-76
2022/06/17 07:20:08;;;;;;;2.20;1.27;;;44.10;28.50;;;;;;904216;155;26198;-77
2022/06/17 07:22:36;;;;;;;1.67;1.00;;;44.30;28.40;;;;;;909921;155;26341;-77
2022/06/17 07:25:01;;;;;;;0.90;0.62;;;44.50;27.90;;;;;;911261;155;26313;-75
2022/06/17 07:27:28;;;;;;;3.92;0.85;;;44.70;27.60;;;;;;897122;156;28546;-75
2022/06/17 07:29:55;;;;;;;3.72;0.95;;;44.90;27.50;;;;;;903775;156;26260;-75
2022/06/17 07:32:21;;;;;;;1.22;0.90;;;45.20;27.30;;;;;;924768;150;26315;-76
2022/06/17 07:34:48;;;;;;;0.98;0.90;;;45.50;27.00;;;;;;928650;152;26304;-77
2022/06/17 07:40:00;;;;;;;3.37;0.98;;;45.90;26.50;;;;;;926095;152;26309;-75
2022/06/17 07:42:38;;;;;;;2.05;0.82;;;46.20;26.30;;;;;;926620;152;26167;-75
2022/06/17 07:44:55;;;;;;;1.10;0.88;;;46.40;26.00;;;;;;920769;153;26240;-75
2022/06/17 07:47:21;;;;;;;2.42;1.00;;;46.50;25.70;;;;;;926911;152;26207;-76
2022/06/17 07:49:48;;;;;;;1.02;0.70;;;46.70;25.50;;;;;;926280;153;26305;-75
2022/06/17 07:52:15;;;;;;;1.60;0.60;;;46.70;25.30;;;;;;924291;153;26233;-75
2022/06/17 07:54:41;;;;;;;1.02;0.70;;;46.80;25.10;;;;;;926340;153;26179;-74
2022/06/17 07:57:08;;;;;;;1.82;1.30;;;46.90;24.90;;;;;;925778;153;26215;-75
2022/06/17 07:59:34;;;;;;;0.80;0.80;;;46.90;24.80;;;;;;927979;153;26168;-74
2022/06/17 08:02:01;;;;;;;1.95;0.93;;;47.00;24.50;;;;;;926241;153;26206;-73
2022/06/17 08:04:28;;;;;;;2.22;1.12;;;46.90;24.30;;;;;;928657;150;26332;-74
2022/06/17 08:06:54;;;;;;;2.05;1.00;;;46.80;24.10;;;;;;927739;150;26314;-73
2022/06/17 08:09:21;;;;;;;1.35;1.10;;;46.70;24.00;;;;;;928036;152;26302;-73
2022/06/17 08:11:47;;;;;;;1.85;1.10;;;46.60;24.00;;;;;;925243;153;26293;-74
2022/06/17 08:14:14;;;;;;;0.93;0.60;;;46.50;23.90;;;;;;927416;150;26219;-74
2022/06/17 08:16:41;;;;;;;1.65;0.78;;;46.40;23.90;;;;;;925095;150;26292;-74
2022/06/17 08:19:07;;;;;;;1.77;0.90;;;46.40;23.90;;;;;;927553;152;27452;-74
2022/06/17 08:21:34;;;;;;;1.60;0.70;;;46.40;23.90;;;;;;924582;153;26193;-73
2022/06/17 08:24:00;;;;;;;0.78;0.70;;;46.40;23.80;;;;;;922526;155;26239;-74
2022/06/17 08:26:27;;;;;;;0.93;0.90;;;46.40;23.60;;;;;;926403;152;26320;-74
2022/06/17 08:28:53;;;;;;;0.80;0.80;;;46.30;23.60;;;;;;925842;153;26269;-73
2022/06/17 08:31:20;;;;;;;1.00;0.70;;;46.20;23.50;;;;;;921949;150;26139;-73
2022/06/17 08:33:47;;;;;;;3.30;0.88;;;46.30;24.20;;;;;;921670;153;26218;-74
2022/06/17 08:36:16;;;;;;;2.12;1.10;;;46.40;23.60;;;;;;922386;152;26223;-73
2022/06/17 08:38:45;;;;;;;4.22;0.88;;;46.50;23.50;;;;;;924148;152;26328;-75
2022/06/17 08:41:24;;;;;;;0.62;0.62;;;46.70;23.40;;;;;;922843;153;26170;-73
2022/06/17 08:44:11;;;;;;;0.82;0.72;;;47.00;23.10;;;;;;924100;153;26293;-73
2022/06/17 08:46:56;;;;;;;1.47;1.22;;;47.30;23.10;;;;;;921218;153;26304;-73
2022/06/17 08:49:34;;;;;;;0.78;0.70;;;47.50;22.60;;;;;;920576;153;26171;-75
2022/06/17 08:52:29;;;;;;;0.85;0.78;;;47.70;22.40;;;;;;920451;152;26299;-73
2022/06/17 08:55:13;;;;;;;1.98;1.02;;;47.70;22.10;;;;;;922166;152;26234;-73
2022/06/17 08:58:01;;;;;;;3.02;0.88;;;47.70;22.20;;;;;;923751;152;26175;-73
2022/06/17 09:00:33;;;;;;;1.12;0.68;;;47.70;22.10;;;;;;919913;152;26196;-73
2022/06/17 09:03:06;;;;;;;0.75;0.60;;;47.70;21.90;;;;;;921028;153;26234;-74
2022/06/17 09:05:41;;;;;;;2.42;0.75;;;47.80;21.70;;;;;;922672;153;26324;-73
2022/06/17 09:08:22;;;;;;;0.70;0.60;;;47.80;21.70;;;;;;923585;153;26247;-74
2022/06/17 09:11:04;;;;;;;0.62;0.42;;;47.80;21.70;;;;;;923825;153;26261;-72
2022/06/17 09:13:45;;;;;;;1.02;0.80;;;47.90;21.80;;;;;;920512;152;26262;-74
2022/06/17 09:16:15;;;;;;;1.17;0.72;;;48.00;21.60;;;;;;917798;153;26203;-73
2022/06/17 09:18:41;;;;;;;1.15;0.80;;;48.20;21.60;;;;;;921912;150;26334;-73
2022/06/17 09:21:18;;;;;;;0.65;0.55;;;48.20;21.20;;;;;;921940;152;26182;-73
2022/06/17 09:23:43;;;;;;;1.95;0.68;;;48.00;21.00;;;;;;923392;153;26227;-73
2022/06/17 09:26:28;;;;;;;1.50;1.10;;;47.80;20.90;;;;;;922467;152;26213;-73
2022/06/17 09:29:01;;;;;;;2.50;0.78;;;47.50;20.70;;;;;;922110;152;26223;-75
2022/06/17 09:31:28;;;;;;;1.07;0.80;;;47.00;21.10;;;;;;920137;150;26219;-73
2022/06/17 09:33:56;;;;;;;1.75;1.10;;;46.70;21.10;;;;;;917803;150;26218;-72
2022/06/17 09:36:26;;;;;;;0.82;0.80;;;46.40;21.40;;;;;;917200;154;26177;-73
2022/06/17 09:38:58;;;;;;;0.88;0.82;;;46.20;21.50;;;;;;916790;154;26163;-74
2022/06/17 09:41:43;;;;;;;0.90;0.68;;;46.20;21.40;;;;;;897318;154;26328;-74
2022/06/17 09:44:12;;;;;;;1.15;0.90;;;46.10;21.70;;;;;;920563;151;26199;-74
2022/06/17 09:46:42;;;;;;;0.93;0.82;;;46.20;21.80;;;;;;919051;153;26153;-73
2022/06/17 09:49:23;;;;;;;0.93;0.72;;;46.30;21.90;;;;;;916453;153;26198;-73
2022/06/17 09:52:11;;;;;;;1.17;0.70;;;46.30;21.70;;;;;;915295;150;26351;-75
2022/06/17 09:54:41;;;;;;;1.55;0.70;;;46.40;21.60;;;;;;916602;154;26233;-73
2022/06/17 09:57:13;;;;;;;1.22;0.78;;;46.40;21.50;;;;;;916896;154;28466;-74
2022/06/17 09:59:42;;;;;;;0.60;0.60;;;46.40;21.60;;;;;;896095;154;26303;-75
2022/06/17 10:02:30;;;;;;;0.40;0.40;;;46.40;21.40;;;;;;915993;153;26240;-75
2022/06/17 10:04:57;;;;;;;1.82;0.57;;;46.40;21.30;;;;;;917767;153;26314;-74
2022/06/17 10:07:27;;;;;;;1.25;0.70;;;46.30;21.30;;;;;;919708;150;26562;-73
2022/06/17 10:09:56;;;;;;;0.78;0.62;;;46.00;21.10;;;;;;919389;153;26224;-73
2022/06/17 10:12:35;;;;;;;0.80;0.65;;;45.80;21.00;;;;;;923332;153;26141;-73
2022/06/17 10:15:01;;;;;;;1.15;0.80;;;45.40;21.10;;;;;;916703;154;26201;-73
2022/06/17 10:20:52;;;;;;;1.45;0.90;;;44.70;21.30;;;;;;920206;154;26314;-74
2022/06/17 10:23:28;;;;;;;1.20;0.62;;;44.30;21.40;;;;;;916728;154;26314;-73
2022/06/17 10:25:54;;;;;;;1.02;0.70;;;43.90;21.40;;;;;;918194;154;26246;-73
2022/06/17 10:28:24;;;;;;;1.20;0.90;;;43.60;21.40;;;;;;914962;154;27263;-73
2022/06/17 10:30:53;;;;;;;0.95;0.80;;;43.10;21.40;;;;;;914320;154;27406;-73
2022/06/17 10:33:20;;;;;;;1.00;0.62;;;42.70;21.50;;;;;;920490;153;26669;-74
2022/06/17 10:35:47;;;;;;;1.67;1.02;;;42.30;21.60;;;;;;922951;153;26253;-75
2022/06/17 10:38:25;;;;;;;1.00;0.70;;;41.90;21.60;;;;;;920991;153;26337;-73
2022/06/17 10:40:52;;;;;;;0.88;0.80;;;41.40;21.90;;;;;;922611;153;26192;-73
2022/06/17 10:43:18;;;;;;;0.80;0.75;;;41.10;22.10;;;;;;921278;153;26285;-74
2022/06/17 10:45:45;;;;;;;0.60;0.60;;;40.70;22.00;;;;;;920867;153;27383;-72
2022/06/17 10:48:32;;;;;;;1.10;1.00;;;40.20;22.10;;;;;;920272;153;27266;-75
2022/06/17 10:50:59;;;;;;;0.82;0.60;;;39.80;22.10;;;;;;921463;153;26223;-73
2022/06/17 10:53:47;;;;;;;0.65;0.57;;;39.40;22.30;;;;;;923015;153;27399;-73
2022/06/17 10:56:16;;;;;;;0.78;0.78;;;39.10;22.90;;;;;;923564;153;27367;-73
2022/06/17 10:58:43;;;;;;;1.00;0.88;;;38.70;22.50;;;;;;921803;153;27261;-74
2022/06/17 11:01:15;;;;;;;1.40;0.82;;;38.30;22.70;;;;;;923391;150;27263;-74
2022/06/17 11:03:36;;;;;;;0.95;0.70;;;37.90;22.90;;;;;;920160;153;27395;-73
2022/06/17 11:06:05;;;;;;;10.05;1.20;;;37.50;23.10;;;;;;923162;153;27334;-73
2022/06/17 11:08:34;;;;;;;1.50;0.70;;;37.20;23.10;;;;;;921565;153;27291;-72
2022/06/17 11:12:02;;;;;;;0.60;0.60;;;36.90;23.10;;;;;;922504;153;27262;-74
2022/06/17 11:13:28;;;;;;;1.77;0.78;;;36.70;23.30;;;;;;920159;153;27294;-73
2022/06/17 11:15:54;;;;;;;2.27;1.10;;;36.40;23.40;;;;;;921552;152;27377;-72
2022/06/17 11:18:21;;;;;;;0.90;0.90;;;36.20;23.30;;;;;;923007;153;27184;-72
2022/06/17 11:20:53;;;;;;;0.75;0.75;;;35.90;23.50;;;;;;923453;153;27327;-73
2022/06/17 11:23:29;;;;;;;0.85;0.80;;;35.60;23.60;;;;;;919034;153;27414;-73
2022/06/17 11:25:55;;;;;;;1.47;1.00;;;35.40;23.80;;;;;;922420;152;27325;-72
2022/06/17 11:28:25;;;;;;;1.85;1.10;;;35.20;24.00;;;;;;917593;153;27336;-74
2022/06/17 11:30:57;;;;;;;0.82;0.70;;;35.00;24.30;;;;;;919215;153;27325;-73
2022/06/17 11:33:23;;;;;;;1.95;1.05;;;34.90;24.60;;;;;;922503;153;27393;-74
2022/06/17 11:35:50;;;;;;;0.60;0.60;;;34.70;24.70;;;;;;922339;153;27449;-72
2022/06/17 11:38:17;;;;;;;2.08;1.00;;;34.60;24.70;;;;;;922427;153;27454;-72
2022/06/17 11:40:49;;;;;;;0.80;0.80;;;34.40;24.80;;;;;;922993;153;27321;-74
2022/06/17 11:43:16;;;;;;;2.05;0.62;;;34.20;24.80;;;;;;921998;152;27300;-72
2022/06/17 11:45:42;;;;;;;1.00;0.90;;;34.00;24.90;;;;;;920137;152;27361;-75
2022/06/17 11:48:11;;;;;;;1.05;0.80;;;33.90;25.10;;;;;;925010;153;27412;-76
2022/06/17 11:50:40;;;;;;;2.17;0.90;;;33.70;25.10;;;;;;926258;153;27286;-75
2022/06/17 11:53:05;;;;;;;0.80;0.80;;;33.50;25.40;;;;;;923777;153;27383;-74
2022/06/17 11:55:31;;;;;;;1.07;0.80;;;33.40;25.60;;;;;;924038;153;27327;-74
2022/06/17 11:57:58;;;;;;;0.80;0.78;;;33.30;25.80;;;;;;925817;153;27369;-77
2022/06/17 12:00:24;;;;;;;0.95;0.70;;;33.20;25.70;;;;;;926457;153;27879;-76
2022/06/17 12:02:56;;;;;;;0.57;0.57;;;33.20;25.90;;;;;;924826;152;27338;-74
2022/06/17 12:05:23;;;;;;;1.40;0.78;;;33.10;25.90;;;;;;926364;150;27392;-75
2022/06/17 12:08:11;;;;;;;1.42;1.05;;;33.10;25.80;;;;;;926542;153;27859;-76
2022/06/17 12:10:46;;;;;;;1.02;0.90;;;33.00;26.00;;;;;;925295;153;27346;-75
2022/06/17 12:13:19;;;;;;;1.20;1.10;;;32.90;25.90;;;;;;926227;153;27352;-74
2022/06/17 12:15:46;;;;;;;2.22;1.02;;;32.90;26.00;;;;;;927823;153;28458;-74
2022/06/17 12:18:12;;;;;;;0.80;0.80;;;32.80;25.40;;;;;;924915;153;27302;-74
2022/06/17 12:20:45;;;;;;;1.30;1.17;;;32.70;25.90;;;;;;926715;153;27870;-74
2022/06/17 12:23:11;;;;;;;1.37;0.78;;;32.70;26.10;;;;;;927188;153;27406;-76
2022/06/17 12:25:41;;;;;;;0.70;0.70;;;32.60;26.10;;;;;;926493;153;27345;-74
2022/06/17 12:28:26;;;;;;;2.05;0.70;;;32.60;26.40;;;;;;929933;150;27269;-73
2022/06/17 12:31:01;;;;;;;1.62;0.90;;;32.50;26.30;;;;;;924213;153;27324;-74
2022/06/17 12:33:28;;;;;;;0.70;0.70;;;32.40;26.30;;;;;;929817;150;27387;-74
2022/06/17 12:35:57;;;;;;;0.80;0.62;;;32.40;26.40;;;;;;924421;151;27307;-75
2022/06/17 12:38:26;;;;;;;3.22;0.95;;;32.30;26.50;;;;;;924277;153;27306;-74
2022/06/17 12:41:00;;;;;;;1.80;0.85;;;32.30;26.60;;;;;;925338;153;27234;-74
2022/06/17 12:43:31;;;;;;;0.70;0.70;;;32.20;26.60;;;;;;924777;152;27391;-74
2022/06/17 12:46:04;;;;;;;0.70;0.70;;;32.10;26.80;;;;;;921707;153;27754;-75
2022/06/17 12:48:39;;;;;;;0.78;0.72;;;32.00;26.70;;;;;;922532;153;27866;-74
2022/06/17 12:54:24;;;;;;;1.55;0.90;;;31.90;26.80;;;;;;898912;153;27700;-74
2022/06/17 12:56:50;;;;;;;0.90;0.70;;;31.90;26.90;;;;;;924608;153;27312;-74
2022/06/17 12:59:19;;;;;;;1.15;0.82;;;31.90;27.00;;;;;;923134;153;27226;-75
2022/06/17 13:01:55;;;;;;;2.70;1.15;;;31.80;27.00;;;;;;920615;153;27367;-74
2022/06/17 13:04:33;;;;;;;1.77;0.78;;;31.90;27.20;;;;;;919640;153;27256;-74
2022/06/17 13:07:00;;;;;;;0.82;0.70;;;31.90;27.00;;;;;;925509;153;27336;-74
2022/06/17 13:09:45;;;;;;;2.20;0.80;;;31.90;27.00;;;;;;922700;153;27302;-75
2022/06/17 13:12:17;;;;;;;1.00;0.70;;;31.90;27.00;;;;;;923353;153;27251;-76